Time;durP1;ratioP1;P1;durP2;ratioP2;P2;SDS_P1;SDS_P2;PMS_P1;PMS_P2;Temp;Humidity;BMP_temperature;BMP_pressure;BME280_temperature;BME280_humidity;BME280_pressure;Samples;Min_cycle;Max_cycle;Signal;HPM_P1;HPM_P2
2021/10/05 00:01:03;;;;;;;30.35;13.40;;;;;;;8.24;62.80;101375.31;5026875;28;20059;-76
2021/10/05 00:03:29;;;;;;;27.50;14.15;;;;;;;8.27;62.69;101385.75;5011398;28;20092;-76
2021/10/05 00:05:55;;;;;;;30.20;14.45;;;;;;;8.29;62.76;101380.94;5012658;28;20042;-76
2021/10/05 00:08:22;;;;;;;27.60;13.88;;;;;;;8.25;62.63;101385.16;5028582;28;20426;-74
2021/10/05 00:10:49;;;;;;;29.42;13.60;;;;;;;8.28;62.64;101389.31;5030399;28;20037;-76
2021/10/05 00:13:14;;;;;;;27.85;13.35;;;;;;;8.22;62.78;101386.44;5010979;28;20045;-76
2021/10/05 00:15:40;;;;;;;27.00;13.73;;;;;;;8.22;62.80;101382.88;5031172;28;20509;-76
2021/10/05 00:18:06;;;;;;;31.55;13.85;;;;;;;8.16;62.71;101375.59;5029759;28;20060;-75
2021/10/05 00:20:32;;;;;;;33.20;13.70;;;;;;;8.25;62.63;101389.78;5029904;28;20052;-76
2021/10/05 00:22:59;;;;;;;26.88;14.43;;;;;;;8.23;62.56;101381.81;5012917;28;20484;-76
2021/10/05 00:25:26;;;;;;;33.83;13.48;;;;;;;8.18;62.85;101389.81;5028528;28;20045;-75
2021/10/05 00:27:53;;;;;;;26.83;13.63;;;;;;;8.15;62.94;101391.09;5029191;28;20549;-75
2021/10/05 00:30:19;;;;;;;28.15;12.73;;;;;;;8.13;62.90;101382.28;5028869;28;20037;-74
2021/10/05 00:32:44;;;;;;;27.00;13.52;;;;;;;8.16;62.69;101383.75;5012629;28;20597;-75
2021/10/05 00:35:11;;;;;;;31.42;13.68;;;;;;;8.16;62.78;101389.22;5012647;28;20119;-75
2021/10/05 00:37:37;;;;;;;25.45;13.10;;;;;;;8.08;62.89;101382.94;5027630;28;20153;-75
2021/10/05 00:40:03;;;;;;;28.77;13.32;;;;;;;8.08;62.93;101385.66;5030109;28;20115;-76
2021/10/05 00:42:33;;;;;;;26.73;11.77;;;;;;;8.02;62.84;101386.56;4997028;28;20417;-76
2021/10/05 00:44:59;;;;;;;26.35;13.07;;;;;;;7.97;63.04;101378.22;5029414;28;20045;-76
2021/10/05 00:47:25;;;;;;;25.80;11.90;;;;;;;8.01;63.06;101389.50;5029287;28;20053;-76
2021/10/05 00:49:51;;;;;;;24.42;11.20;;;;;;;8.00;63.00;101393.28;5008807;28;20042;-76
2021/10/05 00:52:18;;;;;;;23.05;11.02;;;;;;;8.05;63.08;101388.84;5010518;28;20576;-77
2021/10/05 00:54:45;;;;;;;21.60;10.50;;;;;;;8.11;62.81;101394.47;5010171;28;20042;-76
2021/10/05 00:57:13;;;;;;;19.40;10.38;;;;;;;8.11;62.82;101391.72;5009211;28;20049;-77
2021/10/05 00:59:40;;;;;;;;;;;;;;;8.09;62.95;101389.25;5027185;28;20049;-77
2021/10/05 01:02:07;;;;;;;21.20;10.48;;;;;;;8.14;62.86;101396.78;5027310;28;19931;-77
2021/10/05 01:04:33;;;;;;;22.80;9.73;;;;;;;8.15;62.73;101385.63;5025804;28;20073;-76
2021/10/05 01:07:01;;;;;;;21.35;10.52;;;;;;;8.20;62.63;101388.56;5029380;28;20115;-77
2021/10/05 01:09:27;;;;;;;21.83;10.13;;;;;;;8.18;62.65;101384.38;5007430;28;20057;-77
2021/10/05 01:11:54;;;;;;;21.00;10.55;;;;;;;8.15;62.72;101384.81;5030918;28;20033;-76
2021/10/05 01:14:20;;;;;;;21.38;10.65;;;;;;;8.13;62.84;101395.09;5027938;28;20057;-76
2021/10/05 01:16:48;;;;;;;27.02;11.68;;;;;;;8.13;62.85;101395.91;5030355;28;20064;-76
2021/10/05 01:19:14;;;;;;;21.70;10.77;;;;;;;8.12;62.90;101394.25;5029754;28;20437;-75
2021/10/05 01:21:41;;;;;;;27.33;11.50;;;;;;;8.12;62.96;101390.69;5037690;28;20100;-76
2021/10/05 01:24:10;;;;;;;24.05;11.00;;;;;;;8.12;62.94;101396.13;5023266;28;20062;-76
2021/10/05 01:26:36;;;;;;;24.50;11.18;;;;;;;8.09;62.81;101389.25;5006189;28;20037;-76
2021/10/05 01:29:04;;;;;;;24.15;11.70;;;;;;;8.09;62.95;101387.34;5003880;28;20140;-74
2021/10/05 01:31:31;;;;;;;22.08;11.18;;;;;;;8.15;62.80;101393.81;5011809;28;20053;-75
2021/10/05 01:33:57;;;;;;;22.38;11.60;;;;;;;8.18;62.70;101400.72;5012298;28;20132;-76
2021/10/05 01:36:23;;;;;;;24.88;11.98;;;;;;;8.17;62.39;101407.22;5010714;28;20046;-75
2021/10/05 01:38:51;;;;;;;29.88;12.63;;;;;;;8.08;62.51;101412.91;5013145;28;20056;-76
2021/10/05 01:41:17;;;;;;;;;;;;;;;8.07;62.88;101408.53;5011601;28;20057;-76
2021/10/05 01:43:43;;;;;;;22.95;11.68;;;;;;;8.08;62.65;101412.91;5028229;28;19925;-76
2021/10/05 01:46:13;;;;;;;25.90;12.30;;;;;;;8.08;62.54;101407.47;5012546;28;20045;-75
2021/10/05 01:48:39;;;;;;;24.83;11.85;;;;;;;8.04;62.71;101411.69;5012991;28;20045;-76
2021/10/05 01:51:05;;;;;;;26.70;11.60;;;;;;;7.95;62.85;101402.94;5028414;28;20050;-74
2021/10/05 01:53:31;;;;;;;22.63;12.25;;;;;;;7.98;62.95;101401.69;5030668;28;20037;-75
2021/10/05 01:55:59;;;;;;;31.42;11.48;;;;;;;7.97;62.70;101400.00;5028796;28;20080;-76
2021/10/05 01:58:25;;;;;;;29.08;11.85;;;;;;;7.98;62.92;101404.41;5026570;28;20068;-76
2021/10/05 02:00:51;;;;;;;22.65;12.10;;;;;;;7.95;62.90;101400.22;5029675;28;20037;-75
2021/10/05 02:03:19;;;;;;;24.17;11.88;;;;;;;7.95;62.97;101400.22;5028064;28;20072;-75
2021/10/05 02:05:45;;;;;;;24.50;11.57;;;;;;;7.93;62.70;101396.88;5019965;28;20673;-73
2021/10/05 02:08:11;;;;;;;24.30;11.07;;;;;;;7.93;62.82;101398.75;4995586;28;20560;-74
2021/10/05 02:10:38;;;;;;;27.20;11.50;;;;;;;7.92;62.88;101402.53;5016366;28;20100;-75
2021/10/05 02:13:06;;;;;;;26.02;11.68;;;;;;;7.93;62.87;101412.38;5015324;28;20041;-77
2021/10/05 02:15:35;;;;;;;26.40;11.70;;;;;;;7.94;62.70;101406.72;4995223;28;20171;-77
2021/10/05 02:18:02;;;;;;;28.40;13.27;;;;;;;7.93;62.69;101404.19;5027701;28;20057;-75
2021/10/05 02:20:28;;;;;;;29.50;14.55;;;;;;;7.90;62.84;101410.94;5028689;28;20046;-76
2021/10/05 02:22:54;;;;;;;28.42;14.10;;;;;;;7.90;62.65;101416.38;5030636;28;20053;-75
2021/10/05 02:25:21;;;;;;;25.38;15.07;;;;;;;7.85;62.66;101413.47;5027313;28;20530;-76
2021/10/05 02:27:47;;;;;;;26.90;15.60;;;;;;;7.78;62.96;101418.94;5031597;28;20053;-76
2021/10/05 02:30:14;;;;;;;27.40;15.07;;;;;;;7.77;62.96;101416.44;5031603;28;20041;-76
2021/10/05 02:32:41;;;;;;;33.83;16.52;;;;;;;7.75;63.05;101413.13;5032416;28;20557;-76
2021/10/05 02:35:08;;;;;;;28.80;16.63;;;;;;;7.72;62.96;101414.38;5013403;28;20042;-76
2021/10/05 02:37:34;;;;;;;34.27;18.47;;;;;;;7.73;62.98;101410.59;5032619;28;20486;-77
2021/10/05 02:40:03;;;;;;;33.53;18.23;;;;;;;7.67;63.19;101411.47;5016003;28;20553;-76
2021/10/05 02:42:29;;;;;;;36.42;18.73;;;;;;;7.64;63.21;101406.44;5012134;28;21903;-76
2021/10/05 02:44:55;;;;;;;34.13;17.17;;;;;;;7.63;63.37;101412.94;5026608;28;20043;-77
2021/10/05 02:47:23;;;;;;;33.10;19.60;;;;;;;7.65;63.33;101414.41;5031796;28;20131;-76
2021/10/05 02:49:49;;;;;;;37.30;18.13;;;;;;;7.61;62.98;101407.72;5033585;28;20137;-77
2021/10/05 02:52:17;;;;;;;41.78;20.13;;;;;;;7.62;63.13;101400.38;5004728;28;20037;-78
2021/10/05 02:54:47;;;;;;;44.63;21.73;;;;;;;7.62;63.32;101412.09;5053584;28;20043;-76
2021/10/05 02:57:15;;;;;;;41.83;18.95;;;;;;;7.59;63.45;101406.25;5054086;28;20068;-76
2021/10/05 02:59:41;;;;;;;31.75;18.15;;;;;;;7.58;63.46;101407.31;5041347;28;20056;-77
2021/10/05 03:02:07;;;;;;;31.67;17.58;;;;;;;7.65;63.25;101413.56;5052822;28;20042;-77
2021/10/05 03:04:35;;;;;;;40.60;22.20;;;;;;;7.60;63.39;101411.50;5022011;28;20502;-77
2021/10/05 03:07:01;;;;;;;34.63;17.80;;;;;;;7.61;63.51;101409.59;5020458;28;20530;-77
2021/10/05 03:09:27;;;;;;;29.35;15.98;;;;;;;7.63;63.42;101412.94;5033993;28;21096;-78
2021/10/05 03:11:53;;;;;;;33.97;16.67;;;;;;;7.61;63.59;101412.31;5016647;28;20073;-78
2021/10/05 03:14:19;;;;;;;31.95;15.93;;;;;;;7.65;63.44;101417.13;5034825;28;20037;-77
2021/10/05 03:16:45;;;;;;;24.80;13.55;;;;;;;7.71;63.39;101412.69;5032255;28;20107;-78
2021/10/05 03:19:12;;;;;;;26.92;12.65;;;;;;;7.57;63.49;101398.31;5014370;28;20403;-78
2021/10/05 03:21:40;;;;;;;23.67;11.70;;;;;;;7.72;63.33;101408.91;5013045;28;20070;-78
2021/10/05 03:24:06;;;;;;;25.35;11.23;;;;;;;7.75;63.35;101415.84;5003984;28;20068;-78
2021/10/05 03:26:35;;;;;;;20.80;10.52;;;;;;;7.77;63.40;101421.91;5031599;28;20637;-75
2021/10/05 03:29:01;;;;;;;22.48;11.52;;;;;;;7.77;63.35;101420.00;5032689;28;20044;-77
2021/10/05 03:31:27;;;;;;;23.55;11.77;;;;;;;7.80;63.35;101422.31;5031965;28;20050;-76
2021/10/05 03:33:53;;;;;;;25.45;11.48;;;;;;;7.77;63.37;101420.00;5030569;28;20093;-77
2021/10/05 03:36:19;;;;;;;23.13;11.15;;;;;;;7.75;63.69;101421.28;5012955;28;20445;-76
2021/10/05 03:38:46;;;;;;;22.02;10.40;;;;;;;7.66;63.53;101420.69;5030092;28;20240;-77
2021/10/05 03:41:14;;;;;;;20.45;11.88;;;;;;;7.66;63.83;101437.03;5032324;28;20585;-77
2021/10/05 03:43:40;;;;;;;22.33;11.30;;;;;;;7.70;63.56;101430.09;5031624;28;20042;-77
2021/10/05 03:46:10;;;;;;;24.42;11.35;;;;;;;7.71;63.60;101434.47;5031340;28;20103;-78
2021/10/05 03:48:38;;;;;;;33.30;11.07;;;;;;;7.77;63.45;101435.50;5031289;28;20044;-77
2021/10/05 03:51:03;;;;;;;21.20;10.75;;;;;;;7.74;63.66;101427.78;5032173;28;20506;-77
2021/10/05 03:53:30;;;;;;;25.67;11.15;;;;;;;7.76;63.48;101436.56;5031734;28;20103;-74
2021/10/05 03:55:58;;;;;;;23.60;10.82;;;;;;;7.69;63.78;101439.31;5032236;28;20528;-77
2021/10/05 03:58:25;;;;;;;22.27;11.35;;;;;;;7.66;63.90;101437.84;5029179;28;20102;-74
2021/10/05 04:00:51;;;;;;;24.73;10.02;;;;;;;7.75;63.83;101441.16;5020575;28;20053;-77
2021/10/05 04:03:17;;;;;;;22.60;10.38;;;;;;;7.81;63.78;101442.19;5027377;28;20540;-77
2021/10/05 04:05:44;;;;;;;21.77;10.52;;;;;;;7.78;63.68;101439.91;5012634;28;20046;-76
2021/10/05 04:08:10;;;;;;;25.13;10.90;;;;;;;7.83;63.74;101442.81;5030185;28;20150;-74
2021/10/05 04:10:36;;;;;;;21.15;9.85;;;;;;;7.87;63.65;101448.66;5008667;28;20550;-74
2021/10/05 04:13:04;;;;;;;23.30;11.10;;;;;;;7.84;63.89;101443.66;5026008;28;20041;-74
2021/10/05 04:15:30;;;;;;;25.90;10.88;;;;;;;7.85;63.75;101445.31;5005482;28;20093;-74
2021/10/05 04:17:56;;;;;;;26.13;10.57;;;;;;;7.93;63.58;101445.91;5012813;28;20052;-75
2021/10/05 04:20:22;;;;;;;22.83;9.77;;;;;;;7.92;63.65;101436.06;5028916;28;20453;-75
2021/10/05 04:22:48;;;;;;;25.67;10.75;;;;;;;7.95;63.71;101453.84;5029149;28;20046;-75
2021/10/05 04:25:14;;;;;;;22.77;10.35;;;;;;;7.98;63.64;101449.88;4998569;28;20045;-74
2021/10/05 04:27:40;;;;;;;20.27;9.60;;;;;;;8.00;63.88;101448.59;5012686;28;20064;-74
2021/10/05 04:30:10;;;;;;;20.48;10.63;;;;;;;7.99;63.78;101446.09;5019609;28;20117;-77
2021/10/05 04:32:37;;;;;;;31.35;11.25;;;;;;;7.92;63.68;101427.03;5025429;28;20104;-76
2021/10/05 04:35:04;;;;;;;26.00;9.98;;;;;;;8.06;63.56;101441.44;5027427;28;20049;-76
2021/10/05 04:37:30;;;;;;;30.25;10.57;;;;;;;7.95;63.52;101432.06;5028591;28;20057;-76
2021/10/05 04:39:56;;;;;;;24.25;10.48;;;;;;;8.03;63.55;101442.72;5030845;28;20091;-76
2021/10/05 04:42:22;;;;;;;28.40;10.73;;;;;;;8.01;63.69;101444.81;4999198;28;20471;-77
2021/10/05 04:44:48;;;;;;;21.25;9.93;;;;;;;8.06;63.61;101445.00;5030670;28;20128;-77
2021/10/05 04:47:15;;;;;;;20.83;10.55;;;;;;;8.12;63.34;101442.44;4995742;28;20133;-77
2021/10/05 04:49:41;;;;;;;20.08;10.27;;;;;;;8.08;63.69;101455.69;5024509;28;20533;-76
2021/10/05 04:52:07;;;;;;;19.48;9.93;;;;;;;8.11;63.58;101460.69;5025102;28;20045;-76
2021/10/05 04:54:44;;;;;;;20.73;9.88;;;;;;;8.05;63.67;101443.31;5027796;28;20053;-78
2021/10/05 04:57:10;;;;;;;21.90;9.88;;;;;;;8.12;63.71;101448.75;5028244;28;20077;-76
2021/10/05 04:59:37;;;;;;;22.52;9.93;;;;;;;8.13;63.74;101452.31;5013743;28;20107;-76
2021/10/05 05:02:03;;;;;;;23.23;10.98;;;;;;;8.18;63.74;101452.50;5018472;28;20107;-75
2021/10/05 05:04:31;;;;;;;22.38;10.23;;;;;;;8.17;63.60;101451.63;5023166;28;20657;-74
2021/10/05 05:06:56;;;;;;;27.38;11.25;;;;;;;8.23;63.65;101466.28;5025411;28;20387;-74
2021/10/05 05:09:43;;;;;;;25.50;10.98;;;;;;;8.23;63.71;101463.56;5015863;28;20049;-76
2021/10/05 05:12:12;;;;;;;23.77;10.23;;;;;;;8.24;63.84;101470.69;5012481;28;20053;-75
2021/10/05 05:14:38;;;;;;;24.85;10.32;;;;;;;8.31;63.53;101476.94;5029649;28;20041;-76
2021/10/05 05:17:04;;;;;;;30.67;9.95;;;;;;;8.40;63.41;101473.94;5029871;28;20045;-75
2021/10/05 05:19:31;;;;;;;20.38;8.95;;;;;;;8.44;63.35;101478.75;5023653;28;20095;-75
2021/10/05 05:21:59;;;;;;;20.67;9.15;;;;;;;8.47;63.38;101477.47;5028728;28;20505;-75
2021/10/05 05:24:32;;;;;;;18.98;9.90;;;;;;;8.44;63.58;101473.28;5029412;28;20052;-76
2021/10/05 05:26:59;;;;;;;20.40;8.95;;;;;;;8.47;63.70;101481.03;5020291;28;20080;-76
2021/10/05 05:29:25;;;;;;;22.05;9.48;;;;;;;8.51;63.77;101492.38;5028149;28;20072;-77
2021/10/05 05:31:57;;;;;;;18.20;9.80;;;;;;;8.42;63.15;101464.50;5029602;28;20053;-76
2021/10/05 05:34:27;;;;;;;21.42;9.50;;;;;;;8.60;63.54;101488.34;5016500;28;20076;-75
2021/10/05 05:36:55;;;;;;;18.27;9.43;;;;;;;8.58;63.53;101484.97;5029518;28;20099;-75
2021/10/05 05:39:21;;;;;;;23.20;9.93;;;;;;;8.64;63.64;101485.97;5030227;28;20444;-75
2021/10/05 05:41:50;;;;;;;22.10;9.50;;;;;;;8.60;63.84;101493.78;5030352;28;20044;-76
2021/10/05 05:44:16;;;;;;;18.88;9.23;;;;;;;8.60;64.11;101495.66;5012854;28;20581;-76
2021/10/05 05:46:42;;;;;;;20.90;8.98;;;;;;;8.52;64.27;101488.56;5028745;28;20045;-76
2021/10/05 05:49:08;;;;;;;30.08;11.20;;;;;;;8.46;64.41;101473.09;5019751;28;20103;-77
2021/10/05 05:52:02;;;;;;;;;;;;;;;;;;;;;
2021/10/05 05:54:43;;;;;;;18.65;9.18;;;;;;;8.22;64.19;101430.03;4974970;28;20043;-76
2021/10/05 05:57:09;;;;;;;22.55;9.07;;;;;;;8.65;64.41;101504.84;4985100;28;20058;-75
2021/10/05 05:59:37;;;;;;;22.45;9.43;;;;;;;8.53;64.31;101484.78;4997039;28;20065;-75
2021/10/05 06:02:15;;;;;;;24.63;11.15;;;;;;;8.48;64.62;101468.25;4992998;28;20042;-76
2021/10/05 06:04:43;;;;;;;22.33;9.38;;;;;;;8.72;64.52;101495.78;4962056;28;20047;-74
2021/10/05 06:07:16;;;;;;;22.38;9.85;;;;;;;8.52;64.57;101461.31;4998299;28;20147;-77
2021/10/05 06:09:53;;;;;;;26.02;9.55;;;;;;;8.77;64.57;101504.16;4971312;28;20141;-75
2021/10/05 06:12:21;;;;;;;30.63;9.60;;;;;;;8.77;64.49;101494.06;4989714;28;20051;-74
2021/10/05 06:14:47;;;;;;;24.52;8.95;;;;;;;8.90;64.34;101504.06;4991131;28;20050;-73
2021/10/05 06:17:13;;;;;;;24.15;8.90;;;;;;;8.95;64.35;101497.91;4993103;28;20093;-74
2021/10/05 06:19:43;;;;;;;24.08;8.63;;;;;;;8.93;64.55;101500.03;5003510;28;20065;-75
2021/10/05 06:22:19;;;;;;;20.80;8.43;;;;;;;8.97;64.88;101503.16;5031641;28;20037;-72
2021/10/05 06:24:48;;;;;;;20.20;8.35;;;;;;;9.05;64.33;101514.63;5005457;28;20457;-74
2021/10/05 06:27:17;;;;;;;26.20;10.48;;;;;;;8.99;64.57;101506.50;5023893;28;20045;-75
2021/10/05 06:29:50;;;;;;;21.75;9.23;;;;;;;9.02;64.82;101512.34;5005105;28;20053;-75
2021/10/05 06:32:18;;;;;;;22.73;9.05;;;;;;;9.05;64.97;101513.78;5016215;28;20092;-74
2021/10/05 06:34:51;;;;;;;21.85;8.77;;;;;;;8.93;65.11;101489.13;5037280;28;20049;-74
2021/10/05 06:37:18;;;;;;;28.02;8.85;;;;;;;9.00;65.29;101506.28;4984272;28;21402;-74
2021/10/05 06:39:45;;;;;;;24.02;8.60;;;;;;;9.00;65.77;101505.44;5033277;28;20056;-74
2021/10/05 06:42:11;;;;;;;26.30;9.93;;;;;;;9.01;65.57;101515.28;5032787;28;20599;-74
2021/10/05 06:44:39;;;;;;;22.08;8.63;;;;;;;9.08;65.59;101516.09;4996153;28;20096;-73
2021/10/05 06:47:05;;;;;;;18.73;8.43;;;;;;;8.99;65.24;101488.25;5012280;28;20048;-75
2021/10/05 06:49:31;;;;;;;23.05;8.23;;;;;;;9.15;65.38;101513.31;5029495;28;20095;-73
2021/10/05 06:51:57;;;;;;;21.08;8.07;;;;;;;9.08;65.52;101510.63;5022951;28;20050;-73
2021/10/05 06:54:23;;;;;;;19.10;7.43;;;;;;;9.16;65.57;101526.72;5008102;28;20136;-74
2021/10/05 06:56:56;;;;;;;18.38;7.90;;;;;;;9.15;65.43;101513.31;5028822;28;20143;-74
2021/10/05 06:59:23;;;;;;;19.73;7.78;;;;;;;9.14;65.48;101511.63;5013992;28;20068;-74
2021/10/05 07:01:51;;;;;;;18.38;8.10;;;;;;;9.18;65.56;101523.75;5030973;28;20052;-73
2021/10/05 07:04:17;;;;;;;17.65;7.30;;;;;;;9.27;65.42;101516.13;5027399;28;20107;-72
2021/10/05 07:06:44;;;;;;;17.60;7.20;;;;;;;9.43;64.96;101531.09;5014947;28;20498;-75
2021/10/05 07:09:10;;;;;;;16.85;7.88;;;;;;;9.46;64.81;101526.00;5028935;28;20088;-75
2021/10/05 07:11:37;;;;;;;21.85;7.78;;;;;;;9.48;64.57;101525.81;5012500;28;20069;-75
2021/10/05 07:14:03;;;;;;;27.58;8.65;;;;;;;9.49;65.02;101528.28;4997036;28;20132;-74
2021/10/05 07:16:29;;;;;;;24.35;8.88;;;;;;;9.63;64.67;101529.00;5036540;28;20102;-75
2021/10/05 07:18:57;;;;;;;21.35;8.13;;;;;;;9.69;64.44;101529.16;5014565;28;20053;-75
2021/10/05 07:21:23;;;;;;;21.83;8.18;;;;;;;9.70;64.53;101537.13;5027937;28;20065;-75
2021/10/05 07:23:49;;;;;;;34.10;8.50;;;;;;;9.69;64.53;101530.00;5033582;28;20132;-75
2021/10/05 07:26:15;;;;;;;20.75;7.75;;;;;;;9.80;64.02;101536.59;5032192;28;20148;-75
2021/10/05 07:28:41;;;;;;;20.27;8.02;;;;;;;9.74;64.47;101535.59;5004455;28;20045;-76
2021/10/05 07:31:07;;;;;;;20.60;9.52;;;;;;;9.77;64.33;101537.88;5041755;28;20455;-74
2021/10/05 07:33:33;;;;;;;24.88;9.10;;;;;;;9.82;64.25;101534.47;5015139;28;20099;-72
2021/10/05 07:36:00;;;;;;;19.15;8.68;;;;;;;9.84;63.89;101524.16;5015176;28;20501;-73
2021/10/05 07:38:26;;;;;;;18.23;8.40;;;;;;;9.92;64.02;101542.13;5028041;28;20041;-76
2021/10/05 07:40:52;;;;;;;19.63;7.88;;;;;;;10.03;63.65;101535.91;5031915;28;20053;-75
2021/10/05 07:43:18;;;;;;;17.90;7.80;;;;;;;10.06;63.54;101537.34;5015911;28;20502;-76
2021/10/05 07:45:45;;;;;;;18.45;8.10;;;;;;;10.13;63.39;101538.09;5027641;28;20149;-76
2021/10/05 07:48:11;;;;;;;15.95;6.85;;;;;;;10.16;63.31;101534.09;4998483;28;20067;-75
2021/10/05 07:50:38;;;;;;;16.42;6.63;;;;;;;10.19;63.02;101533.63;5031909;28;20060;-75
2021/10/05 07:53:05;;;;;;;18.70;6.13;;;;;;;10.22;62.85;101530.44;5011780;28;20537;-75
2021/10/05 07:55:34;;;;;;;13.07;6.50;;;;;;;10.30;62.61;101530.13;5004322;28;20060;-85
2021/10/05 07:58:01;;;;;;;18.85;6.63;;;;;;;10.29;62.53;101528.44;4987402;28;20054;-79
2021/10/05 08:00:35;;;;;;;14.07;6.88;;;;;;;10.34;62.60;101539.53;5002067;28;20048;-84
2021/10/05 08:10:53;;;;;;;11.82;5.85;;;;;;;10.21;62.07;101506.88;4933152;29;20428;-81
2021/10/05 08:13:27;;;;;;;18.73;5.93;;;;;;;9.96;62.08;101475.03;4937164;29;20411;-80
2021/10/05 08:16:06;;;;;;;16.25;6.40;;;;;;;9.95;62.05;101469.81;4934688;29;20051;-84
2021/10/05 08:18:36;;;;;;;13.73;6.15;;;;;;;10.00;61.90;101469.94;5013275;28;20061;-82
2021/10/05 08:21:21;;;;;;;13.77;5.97;;;;;;;10.27;61.88;101514.16;5012983;28;20053;-82
2021/10/05 08:24:11;;;;;;;12.68;5.60;;;;;;;10.31;61.82;101509.91;4999297;28;20139;-81
2021/10/05 08:31:11;;;;;;;18.58;5.30;;;;;;;10.14;61.24;101478.78;4966765;28;20062;-82
2021/10/05 08:33:40;;;;;;;13.35;5.43;;;;;;;10.23;61.30;101491.09;4989130;28;20054;-80
2021/10/05 08:36:25;;;;;;;11.98;5.57;;;;;;;10.13;61.14;101468.94;4975878;28;20485;-82
2021/10/05 08:39:28;;;;;;;20.15;6.00;;;;;;;10.08;60.93;101473.19;4980897;28;20046;-82
2021/10/05 08:42:33;;;;;;;13.25;5.47;;;;;;;10.48;61.15;101525.72;4993195;28;20061;-80
2021/10/05 08:45:07;;;;;;;12.00;4.97;;;;;;;10.21;61.26;101488.56;4949683;28;20059;-75
2021/10/05 08:47:37;;;;;;;11.38;4.70;;;;;;;10.62;61.53;101553.69;4945043;29;20059;-75
2021/10/05 08:50:04;;;;;;;13.13;4.38;;;;;;;10.66;61.29;101551.34;4951900;28;20146;-74
2021/10/05 08:52:30;;;;;;;14.23;5.05;;;;;;;10.66;60.91;101546.69;4951435;28;20142;-76
2021/10/05 08:54:56;;;;;;;11.48;4.78;;;;;;;10.72;60.94;101553.13;4918439;29;20602;-75
2021/10/05 08:57:22;;;;;;;11.50;4.97;;;;;;;10.73;60.78;101547.44;4941782;28;20066;-74
2021/10/05 08:59:48;;;;;;;12.88;4.78;;;;;;;10.76;60.48;101555.16;4965391;28;20047;-75
2021/10/05 09:02:16;;;;;;;13.05;4.80;;;;;;;10.76;60.33;101551.59;4969223;28;20099;-75
2021/10/05 09:04:46;;;;;;;11.88;4.78;;;;;;;10.83;60.31;101544.13;4953961;28;20523;-78
2021/10/05 09:07:16;;;;;;;16.58;4.90;;;;;;;10.87;59.90;101548.06;4953088;28;20055;-75
2021/10/05 09:09:55;;;;;;;13.00;4.45;;;;;;;10.93;60.14;101554.50;4969130;28;20073;-75
2021/10/05 09:12:24;;;;;;;13.48;4.85;;;;;;;10.97;59.93;101552.13;4971040;28;20086;-75
2021/10/05 09:14:50;;;;;;;12.52;4.72;;;;;;;10.97;59.90;101549.41;4954798;28;20057;-75
2021/10/05 09:17:19;;;;;;;12.77;4.45;;;;;;;10.99;59.83;101539.88;5012484;28;20148;-75
2021/10/05 09:19:47;;;;;;;12.15;5.03;;;;;;;11.06;59.42;101545.22;5009147;28;20049;-75
2021/10/05 09:22:15;;;;;;;12.05;4.60;;;;;;;11.06;59.44;101546.09;4998662;28;20056;-74
2021/10/05 09:24:54;;;;;;;12.65;4.68;;;;;;;11.03;59.14;101546.56;5018911;28;20053;-74
2021/10/05 09:27:20;;;;;;;12.32;4.70;;;;;;;11.01;59.19;101548.69;5013980;28;20049;-75
2021/10/05 09:29:49;;;;;;;10.73;5.10;;;;;;;11.00;59.31;101551.66;5030574;28;20041;-76
2021/10/05 09:32:17;;;;;;;19.70;5.20;;;;;;;10.90;59.13;101538.56;5026871;28;20379;-76
2021/10/05 09:34:55;;;;;;;16.10;5.20;;;;;;;11.02;59.15;101550.38;5029940;28;20073;-76
2021/10/05 09:37:25;;;;;;;12.77;4.88;;;;;;;11.06;58.92;101546.09;5028593;28;20076;-75
2021/10/05 09:39:53;;;;;;;13.52;5.40;;;;;;;11.07;58.79;101549.63;5051571;28;20047;-75
2021/10/05 09:42:25;;;;;;;13.73;4.80;;;;;;;11.16;58.95;101550.13;5047619;28;20053;-76
2021/10/05 09:44:58;;;;;;;14.40;5.00;;;;;;;11.19;58.60;101549.69;5045611;28;20052;-76
2021/10/05 09:47:35;;;;;;;11.93;4.28;;;;;;;11.17;58.54;101549.09;5013909;28;20149;-76
2021/10/05 09:50:08;;;;;;;11.00;4.80;;;;;;;11.13;58.56;101531.44;5033555;28;20339;-76
2021/10/05 09:52:40;;;;;;;12.60;5.15;;;;;;;11.15;58.42;101540.25;5017387;28;20084;-76
2021/10/05 09:55:07;;;;;;;12.50;4.78;;;;;;;11.18;58.27;101535.13;5042057;28;20063;-79
2021/10/05 09:57:33;;;;;;;14.23;6.45;;;;;;;11.26;58.08;101547.66;5001524;28;20119;-75
2021/10/05 09:59:59;;;;;;;14.75;5.55;;;;;;;11.28;58.36;101559.19;5051002;28;20521;-74
2021/10/05 10:02:26;;;;;;;18.23;4.85;;;;;;;11.26;58.14;101553.13;5051101;28;20098;-76
2021/10/05 10:04:53;;;;;;;11.88;5.30;;;;;;;11.26;57.94;101552.31;5032180;28;20075;-73
2021/10/05 10:07:23;;;;;;;14.07;5.00;;;;;;;11.19;57.77;101534.06;5034559;28;20139;-74
2021/10/05 10:09:51;;;;;;;12.43;4.97;;;;;;;11.37;58.20;101554.19;5051324;28;20425;-74
2021/10/05 10:12:17;;;;;;;12.18;4.75;;;;;;;11.40;58.06;101563.84;5037666;28;20053;-74
2021/10/05 10:14:43;;;;;;;11.32;5.20;;;;;;;11.41;57.93;101563.63;5032501;28;20091;-75
2021/10/05 10:17:09;;;;;;;12.27;5.43;;;;;;;11.39;57.68;101548.50;5043029;28;20708;-75
2021/10/05 10:19:36;;;;;;;13.10;5.43;;;;;;;11.36;57.65;101555.28;5049744;28;20136;-74
2021/10/05 10:22:10;;;;;;;14.45;5.55;;;;;;;11.29;57.36;101560.03;5043598;28;20053;-75
2021/10/05 10:24:48;;;;;;;14.38;5.10;;;;;;;11.24;57.50;101560.75;5040642;28;20051;-74
2021/10/05 10:27:16;;;;;;;11.95;5.53;;;;;;;11.18;57.53;101559.78;5039924;28;20060;-73
2021/10/05 10:29:42;;;;;;;11.68;5.10;;;;;;;11.20;57.30;101563.13;5033967;28;20522;-74
2021/10/05 10:32:10;;;;;;;14.23;4.95;;;;;;;11.12;57.33;101546.19;5023704;28;20045;-74
2021/10/05 10:34:38;;;;;;;13.43;4.75;;;;;;;11.10;57.18;101554.66;5025325;28;20073;-73
2021/10/05 10:37:10;;;;;;;16.67;5.18;;;;;;;11.18;57.53;101561.69;5023236;28;20041;-75
2021/10/05 10:39:38;;;;;;;17.27;5.00;;;;;;;11.20;57.53;101562.28;5051746;28;20132;-74
2021/10/05 10:42:07;;;;;;;13.27;5.03;;;;;;;11.19;57.42;101555.97;5051394;28;20551;-76
2021/10/05 10:44:37;;;;;;;13.73;5.20;;;;;;;11.24;57.55;101562.63;5040607;28;20045;-75
2021/10/05 10:47:10;;;;;;;11.82;5.20;;;;;;;11.17;57.59;101554.56;5019630;28;20064;-74
2021/10/05 10:49:36;;;;;;;11.25;5.13;;;;;;;11.17;57.66;101566.31;5033280;28;20053;-78
2021/10/05 10:52:06;;;;;;;17.08;5.30;;;;;;;11.15;57.67;101564.88;5044919;28;20232;-80
2021/10/05 10:54:32;;;;;;;16.08;5.22;;;;;;;11.16;57.96;101569.28;5044173;28;20049;-79
2021/10/05 10:57:00;;;;;;;12.25;5.20;;;;;;;11.09;57.65;101563.94;5044377;28;20426;-81
2021/10/05 10:59:30;;;;;;;11.77;4.78;;;;;;;10.99;57.70;101555.47;5035648;28;20457;-81
2021/10/05 11:02:02;;;;;;;10.68;4.85;;;;;;;11.06;57.82;101564.41;5032109;28;20053;-82
2021/10/05 11:04:28;;;;;;;12.52;4.80;;;;;;;11.07;57.93;101564.16;5015934;28;20573;-83
2021/10/05 11:06:57;;;;;;;17.58;5.05;;;;;;;10.94;57.91;101534.28;5033946;28;20081;-83
2021/10/05 11:09:30;;;;;;;11.43;5.30;;;;;;;10.74;58.03;101513.53;5013329;28;20099;-86
2021/10/05 11:12:00;;;;;;;13.03;5.20;;;;;;;10.63;58.08;101492.44;5033208;28;20046;-76
2021/10/05 11:14:29;;;;;;;12.18;5.07;;;;;;;10.98;58.17;101553.81;5036412;28;20515;-75
2021/10/05 11:17:00;;;;;;;12.48;5.28;;;;;;;10.88;58.01;101546.16;5039449;28;20092;-82
2021/10/05 11:19:33;;;;;;;10.90;4.63;;;;;;;10.92;57.86;101558.31;5051084;28;20048;-83
2021/10/05 11:22:06;;;;;;;14.32;4.68;;;;;;;10.59;58.18;101521.34;5032722;28;20045;-83
2021/10/05 11:24:40;;;;;;;13.35;5.43;;;;;;;10.83;58.24;101544.13;5023571;28;20097;-83
2021/10/05 11:27:16;;;;;;;14.90;5.03;;;;;;;10.57;58.23;101498.88;5034923;28;20085;-82
2021/10/05 11:30:30;;;;;;;13.60;5.10;;;;;;;10.90;57.98;101549.50;5036492;28;20049;-83
2021/10/05 11:33:47;;;;;;;;;;;;;;;;;;;;;
2021/10/05 11:36:25;;;;;;;15.88;4.80;;;;;;;10.81;58.18;101537.22;5054881;28;20064;-80
2021/10/05 11:38:54;;;;;;;13.82;5.05;;;;;;;10.82;58.02;101544.34;5054355;28;20056;-77
2021/10/05 11:41:33;;;;;;;12.73;5.03;;;;;;;10.90;57.92;101558.53;5033760;28;20091;-75